Time;durP1;ratioP1;P1;durP2;ratioP2;P2;SDS_P1;SDS_P2;PMS_P1;PMS_P2;Temp;Humidity;BMP_temperature;BMP_pressure;BME280_temperature;BME280_humidity;BME280_pressure;Samples;Min_cycle;Max_cycle;Signal;HPM_P1;HPM_P2
2022/04/15 00:01:44;;;;;;;26.45;15.68;;;;;;;;;;5118484;22;20058;-61
2022/04/15 00:04:10;;;;;;;22.60;13.60;;;;;;;;;;5093311;28;20608;-59
2022/04/15 00:06:36;;;;;;;26.65;13.48;;;;;;;;;;5092729;28;20027;-60
2022/04/15 00:09:03;;;;;;;21.67;12.32;;;;;;;;;;5092371;28;20037;-59
2022/04/15 00:11:31;;;;;;;24.95;13.55;;;;;;;;;;5094476;28;20101;-59
2022/04/15 00:13:57;;;;;;;24.45;13.65;;;;;;;;;;5092827;28;20024;-59
2022/04/15 00:16:23;;;;;;;23.30;13.77;;;;;;;;;;5094018;28;20096;-59
2022/04/15 00:18:49;;;;;;;24.25;12.88;;;;;;;;;;5093649;28;20032;-57
2022/04/15 00:21:15;;;;;;;24.65;13.43;;;;;;;;;;5093949;28;20021;-60
2022/04/15 00:23:41;;;;;;;25.65;13.25;;;;;;;;;;5093715;28;20032;-59
2022/04/15 00:26:07;;;;;;;28.50;13.23;;;;;;;;;;5093482;28;20031;-60
2022/04/15 00:28:33;;;;;;;28.52;13.90;;;;;;;;;;5093649;28;20032;-60
2022/04/15 00:30:59;;;;;;;27.95;14.18;;;;;;;;;;5093347;28;20396;-60
2022/04/15 00:33:25;;;;;;;24.33;12.10;;;;;;;;;;5093538;28;20567;-61
2022/04/15 00:35:51;;;;;;;22.00;12.07;;;;;;;;;;5093134;28;20099;-60
2022/04/15 00:38:17;;;;;;;25.20;12.68;;;;;;;;;;5093395;28;20059;-59
2022/04/15 00:40:43;;;;;;;23.10;11.63;;;;;;;;;;5092934;28;20024;-58
2022/04/15 00:43:09;;;;;;;24.55;12.38;;;;;;;;;;5092138;28;20020;-60
2022/04/15 00:45:35;;;;;;;23.83;11.52;;;;;;;;;;5092456;28;20479;-60
2022/04/15 00:48:01;;;;;;;20.15;11.68;;;;;;;;;;5093346;28;20466;-60
2022/04/15 00:50:27;;;;;;;24.33;12.55;;;;;;;;;;5092776;28;20361;-60
2022/04/15 00:52:55;;;;;;;22.98;12.35;;;;;;;;;;5093064;28;20031;-60
2022/04/15 00:55:22;;;;;;;22.83;11.57;;;;;;;;;;5092774;28;20028;-60
2022/04/15 00:57:50;;;;;;;22.88;12.32;;;;;;;;;;5092954;28;20433;-60
2022/04/15 01:00:16;;;;;;;23.23;13.15;;;;;;;;;;5091582;28;20024;-60
2022/04/15 01:02:43;;;;;;;24.25;13.32;;;;;;;;;;5091630;28;20557;-58
2022/04/15 01:05:10;;;;;;;26.20;12.63;;;;;;;;;;5092606;28;20027;-58
2022/04/15 01:07:37;;;;;;;26.25;14.70;;;;;;;;;;5092991;28;20025;-59
2022/04/15 01:10:04;;;;;;;23.58;12.60;;;;;;;;;;5092430;28;20016;-59
2022/04/15 01:12:30;;;;;;;21.52;12.32;;;;;;;;;;5092890;28;20052;-58
2022/04/15 01:14:59;;;;;;;27.05;13.38;;;;;;;;;;5092392;28;20028;-60
2022/04/15 01:17:26;;;;;;;24.15;12.57;;;;;;;;;;5092767;28;20149;-60
2022/04/15 01:19:52;;;;;;;23.77;12.57;;;;;;;;;;5091047;28;20073;-60
2022/04/15 01:22:18;;;;;;;25.10;13.32;;;;;;;;;;5091649;28;20210;-60
2022/04/15 01:24:44;;;;;;;24.88;13.23;;;;;;;;;;5092372;28;20097;-60
2022/04/15 01:27:10;;;;;;;24.55;14.73;;;;;;;;;;5092647;28;20534;-59
2022/04/15 01:29:40;;;;;;;25.17;14.07;;;;;;;;;;5091272;28;20073;-56
2022/04/15 01:32:07;;;;;;;28.63;16.30;;;;;;;;;;5091582;28;20024;-56
2022/04/15 01:34:36;;;;;;;27.63;14.75;;;;;;;;;;5091462;28;20484;-59
2022/04/15 01:37:04;;;;;;;26.70;14.68;;;;;;;;;;5092648;28;20032;-57
2022/04/15 01:39:31;;;;;;;32.10;14.50;;;;;;;;;;5092600;28;20085;-55
2022/04/15 01:41:57;;;;;;;26.88;15.60;;;;;;;;;;5092587;28;20103;-59
2022/04/15 01:44:23;;;;;;;28.73;16.00;;;;;;;;;;5092297;28;20020;-59
2022/04/15 01:46:49;;;;;;;26.92;15.10;;;;;;;;;;5092623;28;20035;-57
2022/04/15 01:49:15;;;;;;;37.03;16.25;;;;;;;;;;5092755;28;20468;-60
2022/04/15 01:51:41;;;;;;;28.40;15.60;;;;;;;;;;5091570;28;20547;-58
2022/04/15 01:54:07;;;;;;;34.03;16.08;;;;;;;;;;5092214;28;20056;-60
2022/04/15 01:56:33;;;;;;;40.22;24.25;;;;;;;;;;5092476;28;20040;-61
2022/04/15 01:58:59;;;;;;;31.90;18.05;;;;;;;;;;5092281;28;20028;-58
2022/04/15 02:01:25;;;;;;;30.73;18.17;;;;;;;;;;5090979;28;20040;-58
2022/04/15 02:03:51;;;;;;;32.38;17.88;;;;;;;;;;5092450;28;20057;-60
2022/04/15 02:06:17;;;;;;;26.75;16.05;;;;;;;;;;5092109;28;20434;-61
2022/04/15 02:08:43;;;;;;;33.25;16.25;;;;;;;;;;5092462;28;20031;-60
2022/04/15 02:11:09;;;;;;;27.15;14.38;;;;;;;;;;5092039;28;20408;-60
2022/04/15 02:13:35;;;;;;;28.98;15.60;;;;;;;;;;5092075;28;20017;-58
2022/04/15 02:16:01;;;;;;;27.90;15.25;;;;;;;;;;5091707;28;20082;-61
2022/04/15 02:18:27;;;;;;;26.88;16.02;;;;;;;;;;5092022;28;20020;-61
2022/04/15 02:20:53;;;;;;;28.20;16.77;;;;;;;;;;5090350;28;20484;-61
2022/04/15 02:23:19;;;;;;;30.92;17.67;;;;;;;;;;5090775;28;20492;-59
2022/04/15 02:25:45;;;;;;;28.17;16.05;;;;;;;;;;5091632;28;20027;-61
2022/04/15 02:28:11;;;;;;;24.95;14.63;;;;;;;;;;5091792;28;20385;-61
2022/04/15 02:30:37;;;;;;;26.42;14.95;;;;;;;;;;5091476;28;20024;-61
2022/04/15 02:33:03;;;;;;;30.23;16.10;;;;;;;;;;5091850;28;20095;-61
2022/04/15 02:35:29;;;;;;;30.33;15.65;;;;;;;;;;5090228;28;20369;-61
2022/04/15 02:37:55;;;;;;;29.00;16.00;;;;;;;;;;5091741;28;20024;-60
2022/04/15 02:40:21;;;;;;;32.17;16.05;;;;;;;;;;5090161;28;20028;-61
2022/04/15 02:42:47;;;;;;;31.65;18.30;;;;;;;;;;5091676;28;20444;-61
2022/04/15 02:45:13;;;;;;;32.35;17.60;;;;;;;;;;5091195;28;20024;-59
2022/04/15 02:47:40;;;;;;;35.97;20.55;;;;;;;;;;5092115;28;20024;-61
2022/04/15 02:50:07;;;;;;;33.72;18.75;;;;;;;;;;5090043;28;20024;-60
2022/04/15 02:52:33;;;;;;;34.25;19.33;;;;;;;;;;5091585;28;20024;-59
2022/04/15 02:54:59;;;;;;;30.50;16.92;;;;;;;;;;5091201;28;20472;-56
2022/04/15 02:57:25;;;;;;;32.53;17.80;;;;;;;;;;5091647;28;20032;-61
2022/04/15 02:59:51;;;;;;;35.92;18.02;;;;;;;;;;5091180;28;20028;-61
2022/04/15 03:02:17;;;;;;;34.22;19.20;;;;;;;;;;5091495;28;20055;-59
2022/04/15 03:04:43;;;;;;;31.95;18.08;;;;;;;;;;5091463;28;20105;-59
2022/04/15 03:07:09;;;;;;;30.30;17.20;;;;;;;;;;5091492;28;20441;-59
2022/04/15 03:09:35;;;;;;;34.88;19.85;;;;;;;;;;5093781;28;20157;-60
2022/04/15 03:12:01;;;;;;;32.25;18.73;;;;;;;;;;5093807;28;20051;-61
2022/04/15 03:14:27;;;;;;;31.50;16.92;;;;;;;;;;5094726;28;20097;-58
2022/04/15 03:16:53;;;;;;;28.58;16.63;;;;;;;;;;5095156;28;20496;-59
2022/04/15 03:19:19;;;;;;;27.98;16.50;;;;;;;;;;5094620;28;20020;-61
2022/04/15 03:21:45;;;;;;;27.30;15.57;;;;;;;;;;5095074;28;20020;-61
2022/04/15 03:24:11;;;;;;;28.33;13.85;;;;;;;;;;5093360;28;20089;-59
2022/04/15 03:26:37;;;;;;;26.48;14.02;;;;;;;;;;5095041;28;20107;-61
2022/04/15 03:29:04;;;;;;;26.13;13.75;;;;;;;;;;5094403;28;20024;-60
2022/04/15 03:31:30;;;;;;;27.30;14.00;;;;;;;;;;5093681;28;20484;-59
2022/04/15 03:33:56;;;;;;;27.58;14.05;;;;;;;;;;5094829;28;20054;-59
2022/04/15 03:36:22;;;;;;;30.38;13.40;;;;;;;;;;5094663;28;20024;-59
2022/04/15 03:38:48;;;;;;;24.77;11.95;;;;;;;;;;5093177;28;20039;-61
2022/04/15 03:41:14;;;;;;;24.58;12.68;;;;;;;;;;5094529;28;20035;-61
2022/04/15 03:43:40;;;;;;;22.25;12.13;;;;;;;;;;5094248;28;20036;-60
2022/04/15 03:46:06;;;;;;;24.17;12.15;;;;;;;;;;5094569;28;20027;-60
2022/04/15 03:48:33;;;;;;;22.77;11.68;;;;;;;;;;5094406;28;20106;-59
2022/04/15 03:50:59;;;;;;;24.60;13.63;;;;;;;;;;5093931;28;20113;-60
2022/04/15 03:53:25;;;;;;;24.85;12.40;;;;;;;;;;5093084;28;20056;-60
2022/04/15 03:55:51;;;;;;;22.30;12.55;;;;;;;;;;5093773;28;20034;-60
2022/04/15 03:58:17;;;;;;;24.10;13.15;;;;;;;;;;5094558;28;20090;-60
2022/04/15 04:00:44;;;;;;;26.50;13.60;;;;;;;;;;5093867;28;20494;-61
2022/04/15 04:03:10;;;;;;;25.08;13.35;;;;;;;;;;5093023;28;20051;-60
2022/04/15 04:05:36;;;;;;;26.42;14.35;;;;;;;;;;5093843;28;20028;-59
2022/04/15 04:08:02;;;;;;;25.33;13.80;;;;;;;;;;5094084;28;20101;-60
2022/04/15 04:10:28;;;;;;;24.33;13.70;;;;;;;;;;5093381;28;20024;-61
2022/04/15 04:12:54;;;;;;;26.42;15.25;;;;;;;;;;5093913;28;20024;-59
2022/04/15 04:15:20;;;;;;;24.52;13.18;;;;;;;;;;5093514;28;20050;-61
2022/04/15 04:17:48;;;;;;;25.80;14.07;;;;;;;;;;5094074;28;20032;-61
2022/04/15 04:20:15;;;;;;;26.40;13.93;;;;;;;;;;5092649;28;20107;-59
2022/04/15 04:22:41;;;;;;;25.48;13.40;;;;;;;;;;5092636;28;20024;-61
2022/04/15 04:25:08;;;;;;;27.42;13.48;;;;;;;;;;5092046;28;20028;-60
2022/04/15 04:27:38;;;;;;;23.92;13.93;;;;;;;;;;5093659;28;20024;-61
2022/04/15 04:30:05;;;;;;;24.83;14.35;;;;;;;;;;5093316;28;20414;-60
2022/04/15 04:32:31;;;;;;;23.77;13.55;;;;;;;;;;5092297;28;20020;-61
2022/04/15 04:34:57;;;;;;;23.60;13.00;;;;;;;;;;5095263;28;20020;-60
2022/04/15 04:37:24;;;;;;;27.20;14.13;;;;;;;;;;5093508;28;20387;-60
2022/04/15 04:39:50;;;;;;;22.95;12.70;;;;;;;;;;5093107;28;20028;-59
2022/04/15 04:42:16;;;;;;;24.40;13.35;;;;;;;;;;5092135;28;20024;-61
2022/04/15 04:44:42;;;;;;;23.08;12.75;;;;;;;;;;5093044;28;20032;-56
2022/04/15 04:47:09;;;;;;;23.38;13.15;;;;;;;;;;5093486;28;20111;-60
2022/04/15 04:49:35;;;;;;;21.88;12.05;;;;;;;;;;5092948;28;20396;-60
2022/04/15 04:52:02;;;;;;;22.52;11.50;;;;;;;;;;5093141;28;20024;-57
2022/04/15 04:54:28;;;;;;;21.20;11.63;;;;;;;;;;5092858;28;20539;-58
2022/04/15 04:56:54;;;;;;;21.73;11.48;;;;;;;;;;5093295;28;20077;-62
2022/04/15 04:59:22;;;;;;;20.67;10.93;;;;;;;;;;5092752;28;20430;-63
2022/04/15 05:01:48;;;;;;;26.42;12.57;;;;;;;;;;5093083;28;20024;-61
2022/04/15 05:04:14;;;;;;;20.92;11.52;;;;;;;;;;5092542;28;20493;-59
2022/04/15 05:06:40;;;;;;;20.67;11.43;;;;;;;;;;5091615;28;20089;-60
2022/04/15 05:09:06;;;;;;;21.90;11.63;;;;;;;;;;5092554;28;20385;-61
2022/04/15 05:11:32;;;;;;;20.75;11.48;;;;;;;;;;5091460;28;20027;-61
2022/04/15 05:13:58;;;;;;;20.95;11.23;;;;;;;;;;5092870;28;20024;-60
2022/04/15 05:16:24;;;;;;;22.55;11.15;;;;;;;;;;5092747;28;20468;-60
2022/04/15 05:18:50;;;;;;;21.85;10.80;;;;;;;;;;5090962;28;20110;-60
2022/04/15 05:21:16;;;;;;;21.02;11.23;;;;;;;;;;5091407;28;20031;-61
2022/04/15 05:23:42;;;;;;;20.40;11.02;;;;;;;;;;5092779;28;20024;-59
2022/04/15 05:26:08;;;;;;;21.92;10.98;;;;;;;;;;5091078;28;20047;-60
2022/04/15 05:28:36;;;;;;;19.85;10.98;;;;;;;;;;5092715;28;20028;-59
2022/04/15 05:31:02;;;;;;;20.77;10.73;;;;;;;;;;5091992;28;20024;-60
2022/04/15 05:33:28;;;;;;;19.17;9.75;;;;;;;;;;5092456;28;20522;-60
2022/04/15 05:35:54;;;;;;;17.98;9.52;;;;;;;;;;5092234;28;20070;-60
2022/04/15 05:38:20;;;;;;;22.00;9.85;;;;;;;;;;5092434;28;20062;-60
2022/04/15 05:40:46;;;;;;;18.75;9.20;;;;;;;;;;5091045;28;20415;-59
2022/04/15 05:43:12;;;;;;;19.92;8.68;;;;;;;;;;5091325;28;20035;-60
2022/04/15 05:45:38;;;;;;;20.95;9.50;;;;;;;;;;5092144;28;20024;-60
2022/04/15 05:48:04;;;;;;;18.77;8.27;;;;;;;;;;5091273;28;20365;-59
2022/04/15 05:50:30;;;;;;;18.30;8.88;;;;;;;;;;5091703;28;20099;-60
2022/04/15 05:52:57;;;;;;;20.75;9.70;;;;;;;;;;5092500;28;20113;-58
2022/04/15 05:55:23;;;;;;;19.67;9.63;;;;;;;;;;5091862;28;20541;-61
2022/04/15 05:57:49;;;;;;;19.75;9.43;;;;;;;;;;5092189;28;20395;-61
2022/04/15 06:00:15;;;;;;;21.50;10.32;;;;;;;;;;5091764;28;20560;-59
2022/04/15 06:02:41;;;;;;;20.02;10.25;;;;;;;;;;5105341;22;20040;-64
2022/04/15 06:05:07;;;;;;;19.80;9.57;;;;;;;;;;5090646;28;20104;-65
2022/04/15 06:07:33;;;;;;;20.05;11.10;;;;;;;;;;5090785;28;20515;-65
2022/04/15 06:09:59;;;;;;;20.48;10.25;;;;;;;;;;5072419;28;20054;-64
2022/04/15 06:15:21;;;;;;;22.33;11.05;;;;;;;;;;5090691;28;20035;-65
2022/04/15 06:17:47;;;;;;;21.67;11.30;;;;;;;;;;5090811;28;20376;-65
2022/04/15 06:20:13;;;;;;;29.10;11.50;;;;;;;;;;5072296;28;20027;-64
2022/04/15 06:22:42;;;;;;;18.90;10.40;;;;;;;;;;5091008;28;20040;-65
2022/04/15 06:25:08;;;;;;;20.30;10.77;;;;;;;;;;5090384;28;20086;-61
2022/04/15 06:27:34;;;;;;;20.70;10.68;;;;;;;;;;5090906;28;20081;-64
2022/04/15 06:30:00;;;;;;;23.45;10.82;;;;;;;;;;5072210;28;20115;-64
2022/04/15 06:32:26;;;;;;;20.48;11.05;;;;;;;;;;5090527;28;20074;-65
2022/04/15 06:34:52;;;;;;;20.17;10.30;;;;;;;;;;5090411;28;20103;-64
2022/04/15 06:37:18;;;;;;;22.85;11.23;;;;;;;;;;5090706;28;20072;-65
2022/04/15 06:39:50;;;;;;;19.73;10.95;;;;;;;;;;5071906;28;20024;-63
2022/04/15 06:42:16;;;;;;;20.30;11.07;;;;;;;;;;5072439;28;20545;-64
2022/04/15 06:44:42;;;;;;;22.27;11.15;;;;;;;;;;5093138;28;20089;-63
2022/04/15 06:47:08;;;;;;;22.00;10.60;;;;;;;;;;5094140;28;20035;-62
2022/04/15 06:49:34;;;;;;;20.85;11.30;;;;;;;;;;5075770;28;20031;-64
2022/04/15 06:51:59;;;;;;;20.23;11.40;;;;;;;;;;5094167;28;20402;-65
2022/04/15 06:54:25;;;;;;;20.70;10.25;;;;;;;;;;5093711;28;20070;-64
2022/04/15 06:56:51;;;;;;;19.05;10.32;;;;;;;;;;5075969;28;20023;-63
2022/04/15 06:59:17;;;;;;;23.10;10.45;;;;;;;;;;5093849;28;20047;-64
2022/04/15 07:01:44;;;;;;;20.73;10.25;;;;;;;;;;5094078;28;20054;-62
2022/04/15 07:04:10;;;;;;;21.55;10.70;;;;;;;;;;5075440;28;20032;-65
2022/04/15 07:06:36;;;;;;;24.00;11.23;;;;;;;;;;5094256;28;20055;-65
2022/04/15 07:09:02;;;;;;;21.35;10.20;;;;;;;;;;5093413;28;20061;-65
2022/04/15 07:11:28;;;;;;;21.30;10.52;;;;;;;;;;5075448;28;20016;-65
2022/04/15 07:13:54;;;;;;;18.30;10.45;;;;;;;;;;5093655;28;20027;-64
2022/04/15 07:16:20;;;;;;;18.48;10.15;;;;;;;;;;5093556;28;20388;-65
2022/04/15 07:18:46;;;;;;;22.50;10.48;;;;;;;;;;5075105;28;20038;-63
2022/04/15 07:21:12;;;;;;;20.13;10.00;;;;;;;;;;5093459;28;20099;-65
2022/04/15 07:23:38;;;;;;;20.90;10.50;;;;;;;;;;5093558;28;20105;-64
2022/04/15 07:26:04;;;;;;;21.13;10.43;;;;;;;;;;5093163;28;20020;-65
2022/04/15 07:28:30;;;;;;;19.77;9.25;;;;;;;;;;5093665;28;20036;-65
2022/04/15 07:30:56;;;;;;;19.42;9.50;;;;;;;;;;5093006;28;20513;-66
2022/04/15 07:33:22;;;;;;;19.85;9.75;;;;;;;;;;5093382;28;20064;-64
2022/04/15 07:35:48;;;;;;;19.52;9.05;;;;;;;;;;5075149;28;20387;-63
2022/04/15 07:38:14;;;;;;;17.83;8.88;;;;;;;;;;5075307;28;20123;-65
2022/04/15 07:40:40;;;;;;;17.88;9.15;;;;;;;;;;5074531;28;20074;-64
2022/04/15 07:43:06;;;;;;;21.90;9.05;;;;;;;;;;5093088;28;20556;-65
2022/04/15 07:45:32;;;;;;;21.95;9.88;;;;;;;;;;5092840;28;20017;-64
2022/04/15 07:47:58;;;;;;;20.00;9.10;;;;;;;;;;5093505;28;20028;-65
2022/04/15 07:50:25;;;;;;;18.95;9.70;;;;;;;;;;5074329;28;20078;-63
2022/04/15 07:52:58;;;;;;;18.67;8.85;;;;;;;;;;5093036;28;20025;-65
2022/04/15 07:55:24;;;;;;;22.45;9.63;;;;;;;;;;5073199;28;20400;-64
2022/04/15 07:57:50;;;;;;;18.30;8.80;;;;;;;;;;5093218;28;20063;-65
2022/04/15 08:00:16;;;;;;;20.38;9.40;;;;;;;;;;5092544;28;20468;-63
2022/04/15 08:02:42;;;;;;;19.67;8.93;;;;;;;;;;5092544;28;20036;-63
2022/04/15 08:05:08;;;;;;;19.27;8.82;;;;;;;;;;5074185;28;20027;-66
2022/04/15 08:07:34;;;;;;;20.33;9.43;;;;;;;;;;5092749;28;20035;-65
2022/04/15 08:10:01;;;;;;;20.73;10.43;;;;;;;;;;5092447;28;20036;-65
2022/04/15 08:12:27;;;;;;;18.63;8.75;;;;;;;;;;5092597;28;20375;-66
2022/04/15 08:14:53;;;;;;;19.23;8.77;;;;;;;;;;5092343;28;20112;-65
2022/04/15 08:17:19;;;;;;;18.52;9.45;;;;;;;;;;5074436;28;20028;-65
2022/04/15 08:19:45;;;;;;;21.17;10.70;;;;;;;;;;5092232;28;20032;-65
2022/04/15 08:22:11;;;;;;;19.23;9.43;;;;;;;;;;5074454;28;20055;-65
2022/04/15 08:24:42;;;;;;;20.08;9.60;;;;;;;;;;5092271;28;20043;-66
2022/04/15 08:27:08;;;;;;;21.08;10.45;;;;;;;;;;5092434;28;20185;-65
2022/04/15 08:29:38;;;;;;;20.20;9.82;;;;;;;;;;5092317;28;20027;-65
2022/04/15 08:32:04;;;;;;;20.35;11.23;;;;;;;;;;5092750;28;20024;-65
2022/04/15 08:34:31;;;;;;;50.72;35.85;;;;;;;;;;5092065;28;20095;-64
2022/04/15 08:36:57;;;;;;;20.27;10.70;;;;;;;;;;5092310;28;20357;-64
2022/04/15 08:39:22;;;;;;;21.33;10.35;;;;;;;;;;5092460;28;20028;-64
2022/04/15 08:41:48;;;;;;;22.30;10.57;;;;;;;;;;5074234;28;20024;-63
2022/04/15 08:44:14;;;;;;;24.95;10.48;;;;;;;;;;5091917;28;20541;-64
2022/04/15 08:46:41;;;;;;;22.92;10.77;;;;;;;;;;5092472;28;20024;-65
2022/04/15 08:49:08;;;;;;;22.30;10.48;;;;;;;;;;5073685;28;20035;-64
2022/04/15 08:51:35;;;;;;;23.25;11.10;;;;;;;;;;5091964;28;20044;-65
2022/04/15 08:54:02;;;;;;;23.52;10.68;;;;;;;;;;5073677;28;20030;-61
2022/04/15 08:56:28;;;;;;;21.92;10.93;;;;;;;;;;5092044;28;20530;-66
2022/04/15 08:58:54;;;;;;;19.50;10.40;;;;;;;;;;5091359;28;20024;-65
2022/04/15 09:01:20;;;;;;;19.08;11.05;;;;;;;;;;5091879;28;20059;-64
2022/04/15 09:03:46;;;;;;;22.67;10.68;;;;;;;;;;5091937;28;20030;-64
2022/04/15 09:06:16;;;;;;;21.48;11.13;;;;;;;;;;5091468;28;20024;-63
2022/04/15 09:09:01;;;;;;;19.52;10.30;;;;;;;;;;5091614;28;20031;-64
2022/04/15 09:11:34;;;;;;;21.65;10.45;;;;;;;;;;5092108;28;20098;-63
2022/04/15 09:14:02;;;;;;;19.85;10.10;;;;;;;;;;5073494;28;20537;-63
2022/04/15 09:16:28;;;;;;;;;;;;;;;;;;5092162;28;20028;-56
2022/04/15 09:18:55;;;;;;;21.48;10.75;;;;;;;;;;5074110;28;19918;-61
2022/04/15 09:21:24;;;;;;;21.13;11.00;;;;;;;;;;5093565;28;20487;-58
2022/04/15 09:23:51;;;;;;;23.35;10.65;;;;;;;;;;5075324;28;20020;-61
2022/04/15 09:26:17;;;;;;;25.90;10.07;;;;;;;;;;5078208;28;20035;-61
2022/04/15 09:28:44;;;;;;;19.10;9.82;;;;;;;;;;5100648;28;20028;-61
2022/04/15 09:31:13;;;;;;;19.60;10.15;;;;;;;;;;5098963;28;20070;-61
2022/04/15 09:34:00;;;;;;;19.30;9.75;;;;;;;;;;5099400;28;20020;-60
2022/04/15 09:36:26;;;;;;;20.23;11.00;;;;;;;;;;5098605;28;20391;-60
2022/04/15 09:38:55;;;;;;;18.35;9.98;;;;;;;;;;5100811;28;20024;-69
2022/04/15 09:41:22;;;;;;;25.05;14.10;;;;;;;;;;5097619;28;20024;-62
2022/04/15 09:43:52;;;;;;;25.17;16.08;;;;;;;;;;5093119;28;20034;-68
2022/04/15 09:46:19;;;;;;;19.90;10.32;;;;;;;;;;5073681;28;20384;-67
2022/04/15 09:48:58;;;;;;;22.90;11.50;;;;;;;;;;5091785;28;20043;-66
2022/04/15 09:51:24;;;;;;;22.10;9.98;;;;;;;;;;5073773;28;20080;-66
2022/04/15 09:53:55;;;;;;;20.00;10.98;;;;;;;;;;5090728;28;20032;-66
2022/04/15 09:56:23;;;;;;;19.75;10.18;;;;;;;;;;5091350;28;20484;-67
2022/04/15 09:58:51;;;;;;;19.25;10.23;;;;;;;;;;5091384;28;20034;-66
2022/04/15 10:01:17;;;;;;;20.13;9.55;;;;;;;;;;5091408;28;20035;-65
2022/04/15 10:03:45;;;;;;;17.65;8.65;;;;;;;;;;5091547;28;20035;-66
2022/04/15 10:06:11;;;;;;;18.83;9.23;;;;;;;;;;5072939;28;20073;-65
2022/04/15 10:08:39;;;;;;;21.27;9.93;;;;;;;;;;5090376;28;20068;-67
2022/04/15 10:11:09;;;;;;;18.77;8.90;;;;;;;;;;5091028;28;20073;-67
2022/04/15 10:13:36;;;;;;;16.52;8.60;;;;;;;;;;5091042;28;20017;-66
2022/04/15 10:16:02;;;;;;;18.15;8.55;;;;;;;;;;5072741;28;20020;-67
2022/04/15 10:18:29;;;;;;;16.25;8.55;;;;;;;;;;5093615;28;20024;-67
2022/04/15 10:20:55;;;;;;;17.02;8.13;;;;;;;;;;5095864;28;20024;-65
2022/04/15 10:23:22;;;;;;;18.13;8.55;;;;;;;;;;5070089;28;20037;-63
2022/04/15 10:25:49;;;;;;;15.90;8.02;;;;;;;;;;5057981;28;20036;-66
2022/04/15 10:28:19;;;;;;;17.02;8.32;;;;;;;;;;5057935;28;20027;-66
2022/04/15 10:30:51;;;;;;;16.65;8.50;;;;;;;;;;5076641;28;20377;-67
2022/04/15 10:33:33;;;;;;;19.08;8.75;;;;;;;;;;5078021;28;20028;-65
2022/04/15 10:36:00;;;;;;;15.93;8.10;;;;;;;;;;5055833;28;20115;-66
2022/04/15 10:38:26;;;;;;;17.92;8.63;;;;;;;;;;5056305;28;20032;-66
2022/04/15 10:40:52;;;;;;;17.00;8.60;;;;;;;;;;5056074;28;20024;-63
2022/04/15 10:43:20;;;;;;;16.20;8.35;;;;;;;;;;5074559;28;20025;-65
2022/04/15 10:45:46;;;;;;;16.83;8.33;;;;;;;;;;5074230;28;20021;-66
2022/04/15 10:48:12;;;;;;;16.48;8.30;;;;;;;;;;5074271;28;20031;-66
2022/04/15 10:50:39;;;;;;;18.08;8.30;;;;;;;;;;5074473;28;20017;-67
2022/04/15 10:53:29;;;;;;;15.60;8.10;;;;;;;;;;5056371;28;20025;-66
2022/04/15 10:56:05;;;;;;;30.85;17.88;;;;;;;;;;5073942;28;20569;-64
2022/04/15 10:58:31;;;;;;;18.33;10.30;;;;;;;;;;5074157;28;20024;-64
2022/04/15 11:01:16;;;;;;;16.20;8.27;;;;;;;;;;5073305;28;20035;-64
2022/04/15 11:03:42;;;;;;;17.85;8.15;;;;;;;;;;5055663;28;20056;-64
2022/04/15 11:06:09;;;;;;;17.17;8.32;;;;;;;;;;5075256;28;20050;-64
2022/04/15 11:08:51;;;;;;;19.30;8.88;;;;;;;;;;5094417;28;20027;-64
2022/04/15 11:11:18;;;;;;;17.60;8.10;;;;;;;;;;5075854;28;20434;-62
2022/04/15 11:13:44;;;;;;;17.00;8.05;;;;;;;;;;5093949;28;20023;-64
2022/04/15 11:16:13;;;;;;;17.48;9.18;;;;;;;;;;5093670;28;20042;-62
2022/04/15 11:18:39;;;;;;;;;;;;;;;;;;5076194;28;20024;-62
2022/04/15 11:21:05;;;;;;;15.95;8.00;;;;;;;;;;5093424;28;19972;-59
2022/04/15 11:23:31;;;;;;;17.45;8.45;;;;;;;;;;5093894;28;20031;-61
2022/04/15 11:25:57;;;;;;;15.98;8.40;;;;;;;;;;5093790;28;20110;-63
2022/04/15 11:28:23;;;;;;;16.15;8.30;;;;;;;;;;5094117;28;20103;-62
2022/04/15 11:30:49;;;;;;;15.35;8.25;;;;;;;;;;5093317;28;20426;-62
2022/04/15 11:33:17;;;;;;;16.70;8.68;;;;;;;;;;5075637;28;20046;-58
2022/04/15 11:35:43;;;;;;;18.38;8.65;;;;;;;;;;5093057;28;20027;-63
2022/04/15 11:38:13;;;;;;;17.30;8.57;;;;;;;;;;5093577;28;20112;-62
2022/04/15 11:40:43;;;;;;;16.98;8.30;;;;;;;;;;5093669;28;20020;-63
2022/04/15 11:43:09;;;;;;;16.35;8.13;;;;;;;;;;5094482;28;20020;-64
2022/04/15 11:45:36;;;;;;;16.13;8.10;;;;;;;;;;5076818;28;20118;-63
2022/04/15 11:48:38;;;;;;;18.33;7.90;;;;;;;;;;5076503;28;20039;-64
2022/04/15 11:51:04;;;;;;;16.48;8.20;;;;;;;;;;4976152;28;20113;-63
2022/04/15 11:53:30;;;;;;;16.70;8.15;;;;;;;;;;5056677;28;20079;-63
2022/04/15 11:55:58;;;;;;;16.52;8.73;;;;;;;;;;5077057;28;20480;-64
2022/04/15 11:58:25;;;;;;;16.13;8.27;;;;;;;;;;5076305;28;20028;-63
2022/04/15 12:00:51;;;;;;;16.50;8.98;;;;;;;;;;5075770;28;20101;-64
2022/04/15 12:03:17;;;;;;;15.80;8.10;;;;;;;;;;5096151;22;20045;-65
2022/04/15 12:05:43;;;;;;;15.98;8.95;;;;;;;;;;5055635;28;20020;-65
2022/04/15 12:08:09;;;;;;;17.80;8.98;;;;;;;;;;5074131;28;20163;-65
2022/04/15 12:10:39;;;;;;;17.17;9.23;;;;;;;;;;5073822;28;20025;-65
2022/04/15 12:13:08;;;;;;;16.50;8.88;;;;;;;;;;5074013;28;20021;-65
2022/04/15 12:15:35;;;;;;;16.73;9.20;;;;;;;;;;5055698;28;20027;-63
2022/04/15 12:18:04;;;;;;;28.83;21.08;;;;;;;;;;5073819;28;20031;-66
2022/04/15 12:20:32;;;;;;;19.10;9.93;;;;;;;;;;5055695;28;20370;-62
2022/04/15 12:22:58;;;;;;;20.85;13.18;;;;;;;;;;5073877;28;20043;-69
2022/04/15 12:25:24;;;;;;;16.10;8.73;;;;;;;;;;5073195;28;20423;-68
2022/04/15 12:27:53;;;;;;;16.65;9.05;;;;;;;;;;5055949;28;20034;-69
2022/04/15 12:30:36;;;;;;;17.05;9.05;;;;;;;;;;5073704;28;20017;-69
2022/04/15 12:33:10;;;;;;;16.27;8.63;;;;;;;;;;5073729;28;20025;-69
2022/04/15 12:35:36;;;;;;;16.48;9.77;;;;;;;;;;5074077;28;20028;-70
2022/04/15 12:38:03;;;;;;;16.58;9.52;;;;;;;;;;5074467;28;20480;-69
2022/04/15 12:40:30;;;;;;;18.77;9.13;;;;;;;;;;5072918;28;20032;-69
2022/04/15 12:42:57;;;;;;;16.33;9.05;;;;;;;;;;5055521;28;20477;-70
2022/04/15 12:45:24;;;;;;;18.38;9.80;;;;;;;;;;5072397;28;20033;-67
2022/04/15 12:48:00;;;;;;;18.35;9.80;;;;;;;;;;4702771;28;9999871;-66
2022/04/15 12:50:30;;;;;;;18.05;9.45;;;;;;;;;;5037565;28;20136;-66
2022/04/15 12:52:56;;;;;;;17.75;9.20;;;;;;;;;;5051959;28;20072;-67
2022/04/15 12:55:32;;;;;;;18.85;9.00;;;;;;;;;;5039128;28;20025;-68
2022/04/15 12:57:59;;;;;;;16.85;9.50;;;;;;;;;;5073630;28;20021;-68
2022/04/15 13:00:26;;;;;;;16.77;9.23;;;;;;;;;;5055268;28;20035;-67
2022/04/15 13:02:52;;;;;;;17.08;9.38;;;;;;;;;;5055052;28;20044;-67
2022/04/15 13:05:18;;;;;;;16.73;9.60;;;;;;;;;;5054746;28;20024;-68
2022/04/15 13:07:44;;;;;;;16.02;9.00;;;;;;;;;;5055349;28;20036;-70
2022/04/15 13:10:11;;;;;;;16.35;9.32;;;;;;;;;;5072678;28;20029;-68
2022/04/15 13:12:37;;;;;;;18.97;9.67;;;;;;;;;;4720490;28;10000049;-64
2022/04/15 13:15:04;;;;;;;17.17;9.35;;;;;;;;;;5069585;28;20090;-66
2022/04/15 13:17:30;;;;;;;17.95;10.25;;;;;;;;;;5070626;28;20563;-65
2022/04/15 13:19:56;;;;;;;16.27;9.32;;;;;;;;;;5069725;28;20048;-66
2022/04/15 13:22:22;;;;;;;16.92;9.30;;;;;;;;;;5068151;28;20051;-65
2022/04/15 13:24:48;;;;;;;17.85;9.30;;;;;;;;;;5057375;28;20060;-67
2022/04/15 13:27:14;;;;;;;17.40;9.75;;;;;;;;;;5053111;28;20402;-65
2022/04/15 13:29:40;;;;;;;16.65;8.98;;;;;;;;;;5068020;28;20028;-68
2022/04/15 13:32:06;;;;;;;16.95;9.23;;;;;;;;;;5073015;28;20077;-66
2022/04/15 13:34:33;;;;;;;16.42;8.93;;;;;;;;;;5071130;28;20492;-66
2022/04/15 13:37:08;;;;;;;16.13;8.90;;;;;;;;;;5061580;28;20017;-64
2022/04/15 13:39:35;;;;;;;17.00;8.80;;;;;;;;;;5033017;28;20031;-67
2022/04/15 13:42:02;;;;;;;16.33;8.48;;;;;;;;;;5050563;28;20033;-63
2022/04/15 13:44:29;;;;;;;16.80;9.10;;;;;;;;;;5050569;28;20025;-71
2022/04/15 13:46:55;;;;;;;15.45;8.40;;;;;;;;;;5033146;28;20037;-67
2022/04/15 13:49:21;;;;;;;15.75;8.68;;;;;;;;;;5032308;28;20032;-65
2022/04/15 13:51:47;;;;;;;15.25;8.02;;;;;;;;;;5050778;28;20025;-67
2022/04/15 13:56:59;;;;;;;17.23;8.98;;;;;;;;;;5050543;28;20546;-66
2022/04/15 13:59:25;;;;;;;15.82;8.45;;;;;;;;;;5050160;28;20523;-64
2022/04/15 14:01:51;;;;;;;15.88;8.60;;;;;;;;;;5050304;28;20025;-65
2022/04/15 14:04:17;;;;;;;15.60;8.70;;;;;;;;;;5050134;28;20044;-66
2022/04/15 14:06:45;;;;;;;15.73;9.32;;;11.60;99.90;;;;;;5031702;28;20048;-65
2022/04/15 14:09:13;;;;;;;15.60;9.25;;;16.70;99.90;;;;;;5049941;28;20017;-66
2022/04/15 14:11:41;;;;;;;15.40;8.65;;;16.50;99.90;;;;;;5050986;28;20478;-66
2022/04/15 14:14:08;;;;;;;15.43;8.80;;;16.70;99.90;;;;;;5070319;28;20115;-66
2022/04/15 14:16:34;;;;;;;18.67;8.68;;;16.20;99.90;;;;;;5070871;28;20124;-63
2022/04/15 14:19:02;;;;;;;16.15;8.57;;;;;;;;;;5052702;28;20198;-64
2022/04/15 14:21:28;;;;;;;15.00;8.32;;;16.40;99.90;;;;;;5071182;28;20029;-66
2022/04/15 14:23:54;;;;;;;14.68;8.27;;;15.80;99.90;;;;;;5052284;28;20594;-66